sensor_id;sensor_type;location;lat;lon;timestamp;P1;durP1;ratioP1;P2;durP2;ratioP2
62010;SDS011;47967;51.756;10.174;2023-04-24T04:00:56;2.92;;;1.20;;
62010;SDS011;47967;51.756;10.174;2023-04-24T04:05:18;0.98;;;0.98;;
62010;SDS011;47967;51.756;10.174;2023-04-24T04:09:21;1.50;;;0.95;;
62010;SDS011;47967;51.756;10.174;2023-04-24T04:13:23;1.05;;;0.93;;
62010;SDS011;47967;51.756;10.174;2023-04-24T04:17:27;2.50;;;1.10;;
62010;SDS011;47967;51.756;10.174;2023-04-24T04:21:31;4.53;;;1.40;;
62010;SDS011;47967;51.756;10.174;2023-04-24T04:25:58;1.25;;;1.15;;
62010;SDS011;47967;51.756;10.174;2023-04-24T04:34:25;2.35;;;1.25;;
62010;SDS011;47967;51.756;10.174;2023-04-24T04:38:27;3.33;;;1.17;;
62010;SDS011;47967;51.756;10.174;2023-04-24T04:42:38;2.08;;;1.25;;
62010;SDS011;47967;51.756;10.174;2023-04-24T04:46:42;4.32;;;1.60;;
62010;SDS011;47967;51.756;10.174;2023-04-24T04:50:57;1.58;;;1.48;;
62010;SDS011;47967;51.756;10.174;2023-04-24T04:55:01;5.03;;;1.40;;
62010;SDS011;47967;51.756;10.174;2023-04-24T04:59:23;1.80;;;1.40;;
62010;SDS011;47967;51.756;10.174;2023-04-24T05:03:33;1.90;;;1.50;;
62010;SDS011;47967;51.756;10.174;2023-04-24T05:07:42;3.00;;;1.50;;
62010;SDS011;47967;51.756;10.174;2023-04-24T05:11:45;2.47;;;1.60;;
62010;SDS011;47967;51.756;10.174;2023-04-24T05:15:47;1.60;;;1.50;;
62010;SDS011;47967;51.756;10.174;2023-04-24T05:19:50;2.37;;;1.20;;
62010;SDS011;47967;51.756;10.174;2023-04-24T05:23:54;1.45;;;1.30;;
62010;SDS011;47967;51.756;10.174;2023-04-24T05:28:15;1.55;;;1.38;;
62010;SDS011;47967;51.756;10.174;2023-04-24T05:32:24;4.50;;;1.58;;
62010;SDS011;47967;51.756;10.174;2023-04-24T05:36:29;2.20;;;1.40;;
62010;SDS011;47967;51.756;10.174;2023-04-24T05:40:33;1.15;;;1.10;;
62010;SDS011;47967;51.756;10.174;2023-04-24T05:44:36;1.10;;;1.10;;
62010;SDS011;47967;51.756;10.174;2023-04-24T05:48:39;4.78;;;1.23;;
62010;SDS011;47967;51.756;10.174;2023-04-24T05:52:42;2.63;;;1.20;;
62010;SDS011;47967;51.756;10.174;2023-04-24T05:56:58;1.65;;;1.30;;
62010;SDS011;47967;51.756;10.174;2023-04-24T06:01:15;1.27;;;1.15;;
62010;SDS011;47967;51.756;10.174;2023-04-24T06:05:24;1.30;;;1.20;;
62010;SDS011;47967;51.756;10.174;2023-04-24T06:09:27;1.33;;;1.13;;
62010;SDS011;47967;51.756;10.174;2023-04-24T06:13:32;1.55;;;1.42;;
62010;SDS011;47967;51.756;10.174;2023-04-24T06:17:58;1.40;;;1.30;;
62010;SDS011;47967;51.756;10.174;2023-04-24T06:22:01;1.60;;;1.20;;
62010;SDS011;47967;51.756;10.174;2023-04-24T06:26:04;1.52;;;1.40;;
62010;SDS011;47967;51.756;10.174;2023-04-24T06:30:09;2.60;;;1.20;;
62010;SDS011;47967;51.756;10.174;2023-04-24T06:34:12;3.00;;;1.30;;
62010;SDS011;47967;51.756;10.174;2023-04-24T06:38:15;1.93;;;1.10;;
62010;SDS011;47967;51.756;10.174;2023-04-24T06:42:18;2.13;;;1.10;;
62010;SDS011;47967;51.756;10.174;2023-04-24T06:46:24;1.15;;;1.00;;
62010;SDS011;47967;51.756;10.174;2023-04-24T06:50:29;1.45;;;0.70;;
62010;SDS011;47967;51.756;10.174;2023-04-24T06:54:31;1.53;;;1.10;;
62010;SDS011;47967;51.756;10.174;2023-04-24T06:58:34;0.82;;;0.80;;
62010;SDS011;47967;51.756;10.174;2023-04-24T07:02:38;1.57;;;0.90;;
62010;SDS011;47967;51.756;10.174;2023-04-24T07:06:41;1.40;;;1.15;;
62010;SDS011;47967;51.756;10.174;2023-04-24T07:10:43;1.80;;;0.93;;
62010;SDS011;47967;51.756;10.174;2023-04-24T07:14:46;1.70;;;1.20;;
62010;SDS011;47967;51.756;10.174;2023-04-24T07:18:50;1.73;;;1.50;;
62010;SDS011;47967;51.756;10.174;2023-04-24T07:22:54;2.38;;;1.40;;
62010;SDS011;47967;51.756;10.174;2023-04-24T07:26:56;3.05;;;1.50;;
62010;SDS011;47967;51.756;10.174;2023-04-24T07:30:59;1.50;;;1.40;;
62010;SDS011;47967;51.756;10.174;2023-04-24T07:35:03;3.80;;;1.50;;
62010;SDS011;47967;51.756;10.174;2023-04-24T07:39:06;2.00;;;1.38;;
62010;SDS011;47967;51.756;10.174;2023-04-24T07:43:09;1.77;;;1.50;;
62010;SDS011;47967;51.756;10.174;2023-04-24T07:47:11;1.57;;;1.47;;
62010;SDS011;47967;51.756;10.174;2023-04-24T07:51:17;3.05;;;1.65;;
62010;SDS011;47967;51.756;10.174;2023-04-24T07:55:19;2.80;;;1.88;;
62010;SDS011;47967;51.756;10.174;2023-04-24T07:59:26;6.88;;;1.80;;
62010;SDS011;47967;51.756;10.174;2023-04-24T08:03:29;5.50;;;1.90;;
62010;SDS011;47967;51.756;10.174;2023-04-24T08:07:33;3.57;;;2.00;;
62010;SDS011;47967;51.756;10.174;2023-04-24T08:11:37;4.70;;;2.40;;
62010;SDS011;47967;51.756;10.174;2023-04-24T08:15:39;3.70;;;2.50;;
62010;SDS011;47967;51.756;10.174;2023-04-24T08:19:42;4.37;;;2.40;;
62010;SDS011;47967;51.756;10.174;2023-04-24T08:23:50;4.50;;;2.63;;
62010;SDS011;47967;51.756;10.174;2023-04-24T08:27:53;4.20;;;3.20;;
62010;SDS011;47967;51.756;10.174;2023-04-24T08:31:56;5.90;;;3.17;;
62010;SDS011;47967;51.756;10.174;2023-04-24T08:35:59;4.05;;;2.80;;
62010;SDS011;47967;51.756;10.174;2023-04-24T08:40:04;3.97;;;2.80;;
62010;SDS011;47967;51.756;10.174;2023-04-24T08:44:11;3.53;;;2.75;;
62010;SDS011;47967;51.756;10.174;2023-04-24T08:48:16;3.00;;;2.50;;
62010;SDS011;47967;51.756;10.174;2023-04-24T08:52:32;5.05;;;2.47;;
62010;SDS011;47967;51.756;10.174;2023-04-24T08:56:36;5.13;;;2.40;;
62010;SDS011;47967;51.756;10.174;2023-04-24T09:00:41;3.10;;;2.38;;
62010;SDS011;47967;51.756;10.174;2023-04-24T09:04:48;4.85;;;2.42;;
62010;SDS011;47967;51.756;10.174;2023-04-24T09:08:52;4.78;;;2.63;;
62010;SDS011;47967;51.756;10.174;2023-04-24T09:12:58;4.05;;;2.70;;
62010;SDS011;47967;51.756;10.174;2023-04-24T09:17:03;4.45;;;2.97;;
62010;SDS011;47967;51.756;10.174;2023-04-24T09:21:07;2.97;;;2.50;;
62010;SDS011;47967;51.756;10.174;2023-04-24T09:25:10;3.40;;;2.10;;
62010;SDS011;47967;51.756;10.174;2023-04-24T09:29:15;3.25;;;2.17;;
62010;SDS011;47967;51.756;10.174;2023-04-24T09:33:19;2.70;;;2.13;;
62010;SDS011;47967;51.756;10.174;2023-04-24T09:41:31;2.58;;;2.15;;
62010;SDS011;47967;51.756;10.174;2023-04-24T09:45:36;2.85;;;2.13;;
62010;SDS011;47967;51.756;10.174;2023-04-24T09:49:40;2.15;;;1.90;;
62010;SDS011;47967;51.756;10.174;2023-04-24T09:53:46;3.33;;;1.92;;
62010;SDS011;47967;51.756;10.174;2023-04-24T09:57:57;2.42;;;2.03;;
62010;SDS011;47967;51.756;10.174;2023-04-24T10:02:03;3.45;;;2.10;;
62010;SDS011;47967;51.756;10.174;2023-04-24T10:06:19;2.53;;;1.90;;
62010;SDS011;47967;51.756;10.174;2023-04-24T10:10:22;1.87;;;1.70;;
62010;SDS011;47967;51.756;10.174;2023-04-24T10:14:25;2.63;;;2.10;;
62010;SDS011;47967;51.756;10.174;2023-04-24T10:18:29;4.53;;;2.00;;
62010;SDS011;47967;51.756;10.174;2023-04-24T10:22:33;5.13;;;2.10;;
62010;SDS011;47967;51.756;10.174;2023-04-24T10:26:36;1.93;;;1.80;;
62010;SDS011;47967;51.756;10.174;2023-04-24T10:30:38;2.83;;;2.10;;
62010;SDS011;47967;51.756;10.174;2023-04-24T10:34:46;3.70;;;2.00;;
62010;SDS011;47967;51.756;10.174;2023-04-24T10:38:48;2.38;;;2.17;;
62010;SDS011;47967;51.756;10.174;2023-04-24T10:46:58;3.42;;;2.20;;
62010;SDS011;47967;51.756;10.174;2023-04-24T10:51:02;3.20;;;2.42;;
62010;SDS011;47967;51.756;10.174;2023-04-24T10:55:06;5.57;;;2.83;;
62010;SDS011;47967;51.756;10.174;2023-04-24T10:59:09;2.70;;;2.10;;
62010;SDS011;47967;51.756;10.174;2023-04-24T11:03:25;3.40;;;2.30;;
62010;SDS011;47967;51.756;10.174;2023-04-24T11:07:30;3.28;;;2.25;;
62010;SDS011;47967;51.756;10.174;2023-04-24T11:12:12;3.28;;;2.50;;
62010;SDS011;47967;51.756;10.174;2023-04-24T11:16:15;2.83;;;2.33;;
62010;SDS011;47967;51.756;10.174;2023-04-24T11:20:23;3.05;;;1.92;;
62010;SDS011;47967;51.756;10.174;2023-04-24T11:24:31;1.48;;;1.38;;
62010;SDS011;47967;51.756;10.174;2023-04-24T11:28:35;2.85;;;1.70;;
62010;SDS011;47967;51.756;10.174;2023-04-24T11:32:38;3.47;;;1.95;;
62010;SDS011;47967;51.756;10.174;2023-04-24T11:36:42;4.43;;;1.27;;
62010;SDS011;47967;51.756;10.174;2023-04-24T11:40:47;1.35;;;1.25;;
62010;SDS011;47967;51.756;10.174;2023-04-24T11:44:51;4.15;;;1.60;;
62010;SDS011;47967;51.756;10.174;2023-04-24T11:48:55;1.40;;;1.10;;
62010;SDS011;47967;51.756;10.174;2023-04-24T11:52:58;2.38;;;1.15;;
62010;SDS011;47967;51.756;10.174;2023-04-24T11:57:04;2.00;;;1.38;;
62010;SDS011;47967;51.756;10.174;2023-04-24T12:01:09;0.88;;;0.88;;
62010;SDS011;47967;51.756;10.174;2023-04-24T12:05:18;1.43;;;1.17;;
62010;SDS011;47967;51.756;10.174;2023-04-24T12:09:22;1.45;;;1.30;;
62010;SDS011;47967;51.756;10.174;2023-04-24T12:13:26;1.57;;;1.47;;
62010;SDS011;47967;51.756;10.174;2023-04-24T12:17:29;6.10;;;1.60;;
62010;SDS011;47967;51.756;10.174;2023-04-24T12:21:33;2.03;;;1.27;;
62010;SDS011;47967;51.756;10.174;2023-04-24T12:25:36;2.47;;;1.20;;
62010;SDS011;47967;51.756;10.174;2023-04-24T12:29:51;1.38;;;1.20;;
62010;SDS011;47967;51.756;10.174;2023-04-24T12:33:55;1.75;;;1.23;;
62010;SDS011;47967;51.756;10.174;2023-04-24T12:38:04;2.27;;;1.20;;
62010;SDS011;47967;51.756;10.174;2023-04-24T12:42:07;0.68;;;0.68;;
62010;SDS011;47967;51.756;10.174;2023-04-24T12:46:12;1.10;;;0.82;;
62010;SDS011;47967;51.756;10.174;2023-04-24T12:50:18;0.35;;;0.35;;
62010;SDS011;47967;51.756;10.174;2023-04-24T12:54:20;0.50;;;0.50;;
62010;SDS011;47967;51.756;10.174;2023-04-24T12:58:23;0.30;;;0.30;;
62010;SDS011;47967;51.756;10.174;2023-04-24T13:02:28;0.50;;;0.50;;
62010;SDS011;47967;51.756;10.174;2023-04-24T13:06:32;0.40;;;0.40;;
62010;SDS011;47967;51.756;10.174;2023-04-24T13:10:35;0.30;;;0.30;;
62010;SDS011;47967;51.756;10.174;2023-04-24T13:14:37;0.30;;;0.30;;
62010;SDS011;47967;51.756;10.174;2023-04-24T13:18:42;0.25;;;0.25;;
62010;SDS011;47967;51.756;10.174;2023-04-24T13:22:44;0.40;;;0.40;;
62010;SDS011;47967;51.756;10.174;2023-04-24T13:26:47;1.37;;;0.23;;
62010;SDS011;47967;51.756;10.174;2023-04-24T13:30:49;0.40;;;0.40;;
62010;SDS011;47967;51.756;10.174;2023-04-24T13:34:54;0.20;;;0.20;;
62010;SDS011;47967;51.756;10.174;2023-04-24T13:38:56;0.30;;;0.30;;
62010;SDS011;47967;51.756;10.174;2023-04-24T13:42:59;1.13;;;0.32;;
62010;SDS011;47967;51.756;10.174;2023-04-24T13:47:02;1.10;;;0.25;;
62010;SDS011;47967;51.756;10.174;2023-04-24T13:51:06;0.27;;;0.27;;
62010;SDS011;47967;51.756;10.174;2023-04-24T13:55:09;0.38;;;0.30;;
62010;SDS011;47967;51.756;10.174;2023-04-24T13:59:12;0.80;;;0.40;;
62010;SDS011;47967;51.756;10.174;2023-04-24T14:03:15;0.30;;;0.30;;
62010;SDS011;47967;51.756;10.174;2023-04-24T14:07:19;0.35;;;0.30;;
62010;SDS011;47967;51.756;10.174;2023-04-24T14:11:22;0.52;;;0.50;;
62010;SDS011;47967;51.756;10.174;2023-04-24T14:15:24;0.30;;;0.30;;
62010;SDS011;47967;51.756;10.174;2023-04-24T14:19:27;0.37;;;0.20;;
62010;SDS011;47967;51.756;10.174;2023-04-24T14:23:31;1.30;;;0.30;;
62010;SDS011;47967;51.756;10.174;2023-04-24T14:27:33;0.35;;;0.35;;
62010;SDS011;47967;51.756;10.174;2023-04-24T14:31:36;0.40;;;0.40;;
62010;SDS011;47967;51.756;10.174;2023-04-24T14:35:39;1.03;;;0.50;;
62010;SDS011;47967;51.756;10.174;2023-04-24T14:39:44;0.30;;;0.30;;
62010;SDS011;47967;51.756;10.174;2023-04-24T14:44:06;0.30;;;0.30;;
62010;SDS011;47967;51.756;10.174;2023-04-24T14:48:09;0.40;;;0.40;;
62010;SDS011;47967;51.756;10.174;2023-04-24T14:52:12;0.30;;;0.30;;
62010;SDS011;47967;51.756;10.174;2023-04-24T14:56:16;1.27;;;0.50;;
62010;SDS011;47967;51.756;10.174;2023-04-24T15:00:19;0.50;;;0.50;;
62010;SDS011;47967;51.756;10.174;2023-04-24T15:04:24;1.20;;;0.75;;
62010;SDS011;47967;51.756;10.174;2023-04-24T15:08:27;2.15;;;0.90;;
62010;SDS011;47967;51.756;10.174;2023-04-24T15:12:31;1.30;;;1.20;;
62010;SDS011;47967;51.756;10.174;2023-04-24T15:16:34;2.70;;;1.25;;
62010;SDS011;47967;51.756;10.174;2023-04-24T15:20:37;1.80;;;1.70;;
62010;SDS011;47967;51.756;10.174;2023-04-24T15:24:41;2.97;;;2.00;;
62010;SDS011;47967;51.756;10.174;2023-04-24T15:28:44;5.77;;;1.80;;
62010;SDS011;47967;51.756;10.174;2023-04-24T15:32:47;4.82;;;2.40;;
62010;SDS011;47967;51.756;10.174;2023-04-24T15:36:50;4.00;;;2.30;;
62010;SDS011;47967;51.756;10.174;2023-04-24T15:40:52;4.27;;;2.30;;
62010;SDS011;47967;51.756;10.174;2023-04-24T15:44:56;4.65;;;2.20;;
62010;SDS011;47967;51.756;10.174;2023-04-24T15:48:59;4.20;;;2.42;;
62010;SDS011;47967;51.756;10.174;2023-04-24T15:53:01;5.60;;;2.70;;
62010;SDS011;47967;51.756;10.174;2023-04-24T15:57:04;5.00;;;2.80;;
62010;SDS011;47967;51.756;10.174;2023-04-24T16:01:08;5.40;;;2.70;;
62010;SDS011;47967;51.756;10.174;2023-04-24T16:05:10;3.80;;;2.55;;
62010;SDS011;47967;51.756;10.174;2023-04-24T16:09:13;5.82;;;2.72;;
62010;SDS011;47967;51.756;10.174;2023-04-24T16:13:16;3.85;;;2.88;;
62010;SDS011;47967;51.756;10.174;2023-04-24T16:17:20;4.88;;;2.78;;
62010;SDS011;47967;51.756;10.174;2023-04-24T16:21:22;4.88;;;2.97;;
62010;SDS011;47967;51.756;10.174;2023-04-24T16:25:25;4.83;;;3.20;;
62010;SDS011;47967;51.756;10.174;2023-04-24T16:29:27;6.13;;;3.20;;
62010;SDS011;47967;51.756;10.174;2023-04-24T16:33:31;6.03;;;3.33;;
62010;SDS011;47967;51.756;10.174;2023-04-24T16:37:34;6.38;;;3.00;;
62010;SDS011;47967;51.756;10.174;2023-04-24T16:41:37;6.95;;;2.75;;
62010;SDS011;47967;51.756;10.174;2023-04-24T16:45:39;7.53;;;2.70;;
62010;SDS011;47967;51.756;10.174;2023-04-24T16:49:43;6.37;;;2.43;;
62010;SDS011;47967;51.756;10.174;2023-04-24T16:53:46;4.75;;;2.22;;
62010;SDS011;47967;51.756;10.174;2023-04-24T16:57:49;4.33;;;2.33;;
62010;SDS011;47967;51.756;10.174;2023-04-24T17:01:51;3.95;;;2.20;;
62010;SDS011;47967;51.756;10.174;2023-04-24T17:05:55;5.97;;;2.80;;
62010;SDS011;47967;51.756;10.174;2023-04-24T17:09:58;5.03;;;2.45;;
62010;SDS011;47967;51.756;10.174;2023-04-24T17:14:00;2.90;;;2.10;;
62010;SDS011;47967;51.756;10.174;2023-04-24T17:18:03;2.55;;;2.30;;
62010;SDS011;47967;51.756;10.174;2023-04-24T17:22:08;2.50;;;1.92;;
62010;SDS011;47967;51.756;10.174;2023-04-24T17:26:11;4.35;;;2.28;;
62010;SDS011;47967;51.756;10.174;2023-04-24T17:30:14;2.87;;;2.30;;
62010;SDS011;47967;51.756;10.174;2023-04-24T17:34:17;3.25;;;2.15;;
62010;SDS011;47967;51.756;10.174;2023-04-24T17:38:21;3.20;;;2.47;;
62010;SDS011;47967;51.756;10.174;2023-04-24T17:42:24;3.85;;;2.08;;
62010;SDS011;47967;51.756;10.174;2023-04-24T17:46:27;6.03;;;2.50;;
62010;SDS011;47967;51.756;10.174;2023-04-24T17:50:30;4.90;;;2.30;;
62010;SDS011;47967;51.756;10.174;2023-04-24T17:54:34;3.33;;;2.33;;
62010;SDS011;47967;51.756;10.174;2023-04-24T17:58:36;5.38;;;2.08;;
62010;SDS011;47967;51.756;10.174;2023-04-24T18:02:39;7.37;;;2.53;;
62010;SDS011;47967;51.756;10.174;2023-04-24T18:06:41;4.30;;;2.35;;
62010;SDS011;47967;51.756;10.174;2023-04-24T18:10:45;3.93;;;2.20;;
62010;SDS011;47967;51.756;10.174;2023-04-24T18:14:48;3.83;;;2.17;;
62010;SDS011;47967;51.756;10.174;2023-04-24T18:19:00;2.95;;;1.90;;
62010;SDS011;47967;51.756;10.174;2023-04-24T18:23:03;3.67;;;2.60;;
62010;SDS011;47967;51.756;10.174;2023-04-24T18:27:07;2.58;;;1.95;;
62010;SDS011;47967;51.756;10.174;2023-04-24T18:31:09;5.85;;;2.60;;
62010;SDS011;47967;51.756;10.174;2023-04-24T18:35:12;3.30;;;2.60;;
62010;SDS011;47967;51.756;10.174;2023-04-24T18:39:15;4.50;;;2.67;;
62010;SDS011;47967;51.756;10.174;2023-04-24T18:43:19;4.27;;;2.67;;
62010;SDS011;47967;51.756;10.174;2023-04-24T18:47:21;3.80;;;2.55;;
62010;SDS011;47967;51.756;10.174;2023-04-24T18:51:24;2.60;;;2.30;;
62010;SDS011;47967;51.756;10.174;2023-04-24T18:55:27;3.20;;;2.63;;
62010;SDS011;47967;51.756;10.174;2023-04-24T18:59:30;3.67;;;2.65;;
62010;SDS011;47967;51.756;10.174;2023-04-24T19:03:33;3.00;;;2.60;;
62010;SDS011;47967;51.756;10.174;2023-04-24T19:07:36;6.13;;;3.20;;
62010;SDS011;47967;51.756;10.174;2023-04-24T19:11:38;4.40;;;3.30;;
62010;SDS011;47967;51.756;10.174;2023-04-24T19:15:43;4.68;;;3.25;;
62010;SDS011;47967;51.756;10.174;2023-04-24T19:19:45;7.03;;;3.40;;
62010;SDS011;47967;51.756;10.174;2023-04-24T19:23:48;3.75;;;3.08;;
62010;SDS011;47967;51.756;10.174;2023-04-24T19:27:52;6.47;;;3.58;;
62010;SDS011;47967;51.756;10.174;2023-04-24T19:31:56;6.33;;;3.47;;
62010;SDS011;47967;51.756;10.174;2023-04-24T19:35:59;5.88;;;3.50;;
62010;SDS011;47967;51.756;10.174;2023-04-24T19:40:02;5.83;;;3.33;;
62010;SDS011;47967;51.756;10.174;2023-04-24T19:48:09;5.50;;;3.40;;
62010;SDS011;47967;51.756;10.174;2023-04-24T19:52:11;5.70;;;3.42;;
62010;SDS011;47967;51.756;10.174;2023-04-24T19:56:15;7.85;;;3.58;;
62010;SDS011;47967;51.756;10.174;2023-04-24T20:00:18;11.77;;;3.25;;
62010;SDS011;47967;51.756;10.174;2023-04-24T20:04:22;7.23;;;3.23;;
62010;SDS011;47967;51.756;10.174;2023-04-24T20:08:24;5.93;;;3.38;;
62010;SDS011;47967;51.756;10.174;2023-04-24T20:12:27;5.23;;;3.00;;
62010;SDS011;47967;51.756;10.174;2023-04-24T20:16:30;7.17;;;3.53;;
62010;SDS011;47967;51.756;10.174;2023-04-24T20:20:34;6.40;;;3.63;;
62010;SDS011;47967;51.756;10.174;2023-04-24T20:24:38;6.88;;;3.50;;
62010;SDS011;47967;51.756;10.174;2023-04-24T20:28:41;6.53;;;3.20;;
62010;SDS011;47967;51.756;10.174;2023-04-24T20:32:44;4.83;;;3.07;;
62010;SDS011;47967;51.756;10.174;2023-04-24T20:36:48;6.73;;;3.10;;
62010;SDS011;47967;51.756;10.174;2023-04-24T20:40:50;5.63;;;3.42;;
62010;SDS011;47967;51.756;10.174;2023-04-24T20:44:56;5.97;;;3.28;;
62010;SDS011;47967;51.756;10.174;2023-04-24T20:48:58;6.07;;;3.50;;
62010;SDS011;47967;51.756;10.174;2023-04-24T20:53:04;6.45;;;3.33;;
62010;SDS011;47967;51.756;10.174;2023-04-24T20:57:07;7.18;;;3.97;;
